Time;durP1;ratioP1;P1;durP2;ratioP2;P2;SDS_P1;SDS_P2;PMS_P1;PMS_P2;Temp;Humidity;BMP_temperature;BMP_pressure;BME280_temperature;BME280_humidity;BME280_pressure;Samples;Min_cycle;Max_cycle;Signal;HPM_P1;HPM_P2
2022/11/07 00:01:28;;;;;;;;;;;19.90;65.90;;;;;;5073444;28;20131;-64
2022/11/07 00:03:53;;;;;;;;;;;19.90;65.90;;;;;;5070431;28;19924;-64
2022/11/07 00:06:22;;;;;;;;;;;19.90;66.00;;;;;;5073382;28;19928;-64
2022/11/07 00:08:48;;;;;;;;;;;19.90;65.90;;;;;;5073409;28;19972;-64
2022/11/07 00:11:13;;;;;;;;;;;19.90;65.90;;;;;;5072615;28;20355;-64
2022/11/07 00:13:39;;;;;;;;;;;19.90;65.90;;;;;;5073679;28;20394;-64
2022/11/07 00:16:05;;;;;;;;;;;19.90;65.90;;;;;;5072332;28;19931;-64
2022/11/07 00:18:31;;;;;;;;;;;19.80;65.80;;;;;;5073728;28;20011;-64
2022/11/07 00:21:03;;;;;;;;;;;19.80;65.80;;;;;;5073015;28;20003;-64
2022/11/07 00:23:31;;;;;;;;;;;19.80;65.80;;;;;;5072611;28;19964;-63
2022/11/07 00:26:03;;;;;;;;;;;19.90;65.80;;;;;;5074092;28;19921;-63
2022/11/07 00:28:31;;;;;;;;;;;19.80;65.70;;;;;;5073921;28;19924;-64
2022/11/07 00:31:03;;;;;;;;;;;19.80;65.70;;;;;;5072886;28;19932;-64
2022/11/07 00:33:29;;;;;;;;;;;19.80;65.70;;;;;;5073622;28;19974;-64
2022/11/07 00:35:54;;;;;;;;;;;19.80;65.70;;;;;;5072931;28;19959;-64
2022/11/07 00:38:20;;;;;;;;;;;19.80;65.70;;;;;;5072018;28;19928;-63
2022/11/07 00:41:01;;;;;;;;;;;19.80;65.60;;;;;;5072901;28;19971;-63
2022/11/07 00:43:26;;;;;;;;;;;19.80;65.70;;;;;;5072529;28;20372;-63
2022/11/07 00:45:52;;;;;;;;;;;19.80;65.70;;;;;;5071938;28;19924;-64
2022/11/07 00:48:17;;;;;;;;;;;19.70;65.60;;;;;;5072616;28;19975;-63
2022/11/07 00:50:43;;;;;;;;;;;19.70;65.70;;;;;;5072786;28;20279;-64
2022/11/07 00:53:08;;;;;;;;;;;19.70;65.70;;;;;;5053631;28;19924;-65
2022/11/07 00:55:34;;;;;;;;;;;19.70;65.60;;;;;;5072997;28;20011;-64
2022/11/07 00:57:59;;;;;;;;;;;19.70;65.60;;;;;;5073014;28;19978;-64
2022/11/07 01:00:25;;;;;;;;;;;19.70;65.60;;;;;;5071908;28;20439;-64
2022/11/07 01:05:37;;;;;;;;;;;19.70;65.50;;;;;;5071884;28;19971;-64
2022/11/07 01:08:03;;;;;;;;;;;19.70;65.70;;;;;;5072569;28;20363;-64
2022/11/07 01:10:29;;;;;;;;;;;19.70;65.60;;;;;;5072373;28;19983;-64
2022/11/07 01:12:54;;;;;;;;;;;19.70;65.60;;;;;;5072039;28;20368;-64
2022/11/07 01:15:20;;;;;;;;;;;19.70;65.60;;;;;;5072454;28;20016;-64
2022/11/07 01:17:45;;;;;;;;;;;19.60;65.50;;;;;;5072533;28;20296;-64
2022/11/07 01:20:11;;;;;;;;;;;19.60;65.60;;;;;;5071323;28;19938;-63
2022/11/07 01:22:36;;;;;;;;;;;19.70;65.60;;;;;;5072282;28;19924;-63
2022/11/07 01:25:02;;;;;;;;;;;19.60;65.60;;;;;;5072681;28;19928;-64
2022/11/07 01:27:30;;;;;;;;;;;19.60;65.60;;;;;;5071304;28;20338;-64
2022/11/07 01:29:55;;;;;;;;;;;19.60;65.60;;;;;;5072467;28;19929;-64
2022/11/07 01:32:21;;;;;;;;;;;19.60;65.60;;;;;;5054169;28;19928;-63
2022/11/07 01:34:46;;;;;;;;;;;19.60;65.60;;;;;;5071813;28;19925;-64
2022/11/07 01:37:12;;;;;;;;;;;19.60;65.60;;;;;;5072150;28;20341;-64
2022/11/07 01:39:37;;;;;;;;;;;19.60;65.50;;;;;;5054431;28;19936;-63
2022/11/07 01:42:03;;;;;;;;;;;19.60;65.60;;;;;;5071658;28;20415;-64
2022/11/07 01:44:40;;;;;;;;;;;19.60;65.60;;;;;;5075969;28;19929;-64
2022/11/07 01:47:06;;;;;;;;;;;19.60;65.60;;;;;;5076071;28;20298;-63
2022/11/07 01:49:34;;;;;;;;;;;19.60;65.50;;;;;;5074023;28;20384;-64
2022/11/07 01:52:01;;;;;;;;;;;19.60;65.60;;;;;;5076356;28;19924;-63
2022/11/07 01:54:28;;;;;;;;;;;19.60;65.60;;;;;;5057478;28;19925;-63
2022/11/07 01:56:54;;;;;;;;;;;19.50;65.50;;;;;;5076058;28;19925;-64
2022/11/07 01:59:21;;;;;;;;;;;19.50;65.50;;;;;;5074702;28;19924;-64
2022/11/07 02:01:46;;;;;;;;;;;19.50;65.50;;;;;;5075099;28;20778;-63
2022/11/07 02:04:12;;;;;;;;;;;19.50;65.50;;;;;;5057608;28;20007;-63
2022/11/07 02:06:53;;;;;;;;;;;19.60;65.50;;;;;;5076103;28;19983;-64
2022/11/07 02:09:19;;;;;;;;;;;19.50;65.50;;;;;;5073795;28;19940;-64
2022/11/07 02:11:44;;;;;;;;;;;19.50;65.50;;;;;;5076027;28;19924;-64
2022/11/07 02:14:16;;;;;;;;;;;19.50;65.50;;;;;;5075540;28;19929;-63
2022/11/07 02:16:42;;;;;;;;;;;19.50;65.50;;;;;;5075100;28;19924;-63
2022/11/07 02:19:09;;;;;;;;;;;19.50;65.50;;;;;;5075959;28;20364;-63
2022/11/07 02:21:43;;;;;;;;;;;19.50;65.50;;;;;;5074671;28;20015;-64
2022/11/07 02:24:09;;;;;;;;;;;19.50;65.50;;;;;;5056473;28;19978;-64
2022/11/07 02:26:35;;;;;;;;;;;19.50;65.50;;;;;;5075599;28;19928;-64
2022/11/07 02:29:00;;;;;;;;;;;19.50;65.50;;;;;;5075731;28;20007;-64
2022/11/07 02:31:26;;;;;;;;;;;19.50;65.50;;;;;;5056236;28;20015;-64
2022/11/07 02:33:54;;;;;;;;;;;19.50;65.50;;;;;;5057369;28;20368;-64
2022/11/07 02:36:20;;;;;;;;;;;19.50;65.50;;;;;;5057284;28;19935;-64
2022/11/07 02:38:47;;;;;;;;;;;19.50;65.60;;;;;;5074555;28;19926;-64
2022/11/07 02:41:17;;;;;;;;;;;19.40;65.50;;;;;;5075035;28;19934;-64
2022/11/07 02:43:44;;;;;;;;;;;19.40;65.50;;;;;;5073342;28;20021;-64
2022/11/07 02:46:10;;;;;;;;;;;19.40;65.50;;;;;;5075005;28;19932;-64
2022/11/07 02:48:42;;;;;;;;;;;19.40;65.50;;;;;;5073864;28;19929;-64
2022/11/07 02:51:08;;;;;;;;;;;19.40;65.50;;;;;;5074315;28;20010;-64
2022/11/07 02:53:33;;;;;;;;;;;19.40;65.50;;;;;;5074903;28;20032;-64
2022/11/07 02:55:59;;;;;;;;;;;19.40;65.50;;;;;;5075322;28;20348;-64
2022/11/07 02:58:24;;;;;;;;;;;19.40;65.50;;;;;;5074070;28;20431;-63
2022/11/07 03:00:50;;;;;;;;;;;19.40;65.50;;;;;;5071186;28;19928;-63
2022/11/07 03:03:15;;;;;;;;;;;19.40;65.50;;;;;;5072723;28;19986;-64
2022/11/07 03:05:41;;;;;;;;;;;19.40;65.50;;;;;;5055445;28;19924;-64
2022/11/07 03:08:06;;;;;;;;;;;19.40;65.40;;;;;;5073078;28;19924;-64
2022/11/07 03:10:32;;;;;;;;;;;19.40;65.50;;;;;;5074725;28;19931;-64
2022/11/07 03:13:00;;;;;;;;;;;19.40;65.50;;;;;;5074045;28;19927;-63
2022/11/07 03:15:26;;;;;;;;;;;19.40;65.50;;;;;;5074726;28;19924;-64
2022/11/07 03:17:51;;;;;;;;;;;19.40;65.50;;;;;;5056950;28;19986;-64
2022/11/07 03:20:17;;;;;;;;;;;19.40;65.40;;;;;;5073525;28;20027;-63
2022/11/07 03:22:42;;;;;;;;;;;19.40;65.50;;;;;;5074231;28;19928;-62
2022/11/07 03:25:08;;;;;;;;;;;19.40;65.50;;;;;;5074767;28;20011;-62
2022/11/07 03:27:33;;;;;;;;;;;19.40;65.50;;;;;;5073946;28;19932;-64
2022/11/07 03:29:59;;;;;;;;;;;19.40;65.50;;;;;;5074710;28;19925;-64
2022/11/07 03:32:24;;;;;;;;;;;19.40;65.40;;;;;;5074276;28;19955;-64
2022/11/07 03:34:50;;;;;;;;;;;19.40;65.40;;;;;;5073929;28;20051;-64
2022/11/07 03:37:15;;;;;;;;;;;19.30;65.40;;;;;;5074055;28;19924;-64
2022/11/07 03:39:41;;;;;;;;;;;19.30;65.40;;;;;;5074363;28;19928;-64
2022/11/07 03:42:06;;;;;;;;;;;19.30;66.00;;;;;;5055501;28;19924;-64
2022/11/07 03:44:32;;;;;;;;;;;19.30;65.40;;;;;;5055829;28;20023;-63
2022/11/07 03:46:57;;;;;;;;;;;19.30;65.40;;;;;;5073903;28;19935;-63
2022/11/07 03:49:23;;;;;;;;;;;19.40;65.50;;;;;;5073641;28;20058;-63
2022/11/07 03:51:48;;;;;;;;;;;19.30;65.40;;;;;;5073861;28;19920;-63
2022/11/07 03:54:14;;;;;;;;;;;19.30;65.40;;;;;;5059154;28;19925;-63
2022/11/07 03:56:39;;;;;;;;;;;19.30;65.40;;;;;;5054109;28;19924;-63
2022/11/07 03:59:05;;;;;;;;;;;19.30;65.50;;;;;;5035934;28;20311;-64
2022/11/07 04:01:30;;;;;;;;;;;19.30;65.40;;;;;;5052830;28;19974;-64
2022/11/07 04:03:56;;;;;;;;;;;19.40;65.40;;;;;;5053089;28;19925;-64
2022/11/07 04:06:22;;;;;;;;;;;19.40;65.40;;;;;;5052751;28;20343;-64
2022/11/07 04:08:47;;;;;;;;;;;19.40;65.40;;;;;;5052951;28;19976;-64
2022/11/07 04:17:17;;;;;;;;;;;19.40;65.30;;;;;;5053484;28;20388;-63
2022/11/07 04:19:26;;;;;;;;;;;19.40;65.30;;;;;;5053104;28;19924;-63
2022/11/07 04:21:52;;;;;;;;;;;19.50;65.30;;;;;;5053654;28;19925;-63
2022/11/07 04:24:17;;;;;;;;;;;19.40;65.30;;;;;;5052178;28;19979;-64
2022/11/07 04:29:27;;;;;;;;;;;19.40;65.20;;;;;;5052218;28;20289;-64
2022/11/07 04:31:52;;;;;;;;;;;19.50;65.30;;;;;;5053453;28;20376;-63
2022/11/07 04:34:18;;;;;;;;;;;19.40;65.20;;;;;;5052765;28;20004;-63
2022/11/07 04:36:43;;;;;;;;;;;19.50;65.30;;;;;;5052520;28;19924;-65
2022/11/07 04:39:09;;;;;;;;;;;19.50;65.30;;;;;;5052933;28;19925;-64
2022/11/07 04:41:34;;;;;;;;;;;19.50;65.20;;;;;;5053013;28;19925;-63
2022/11/07 04:44:00;;;;;;;;;;;19.50;65.20;;;;;;5052067;28;20368;-63
2022/11/07 04:46:34;;;;;;;;;;;19.50;65.20;;;;;;5052507;28;19924;-63
2022/11/07 04:49:00;;;;;;;;;;;19.60;65.20;;;;;;5052924;28;20384;-63
2022/11/07 04:51:25;;;;;;;;;;;19.60;65.20;;;;;;5034098;28;19925;-63
2022/11/07 04:53:51;;;;;;;;;;;19.60;65.20;;;;;;5052680;28;19924;-63
2022/11/07 04:56:16;;;;;;;;;;;19.60;65.20;;;;;;5052469;28;20368;-64
2022/11/07 04:58:42;;;;;;;;;;;19.60;65.20;;;;;;5052234;28;19976;-64
2022/11/07 05:01:07;;;;;;;;;;;19.60;65.10;;;;;;5055386;28;19970;-64
2022/11/07 05:03:32;;;;;;;;;;;19.60;65.20;;;;;;5065227;28;19951;-64
2022/11/07 05:05:58;;;;;;;;;;;19.60;65.20;;;;;;5051245;28;19937;-63
2022/11/07 05:08:23;;;;;;;;;;;19.60;65.10;;;;;;5051792;28;19928;-63
2022/11/07 05:10:49;;;;;;;;;;;19.60;65.10;;;;;;5052658;28;19925;-64
2022/11/07 05:13:14;;;;;;;;;;;19.70;65.10;;;;;;5033916;28;20019;-63
2022/11/07 05:15:40;;;;;;;;;;;19.70;65.10;;;;;;5052840;28;20030;-63
2022/11/07 05:18:05;;;;;;;;;;;19.70;65.10;;;;;;5051714;28;19925;-63
2022/11/07 05:20:34;;;;;;;;;;;19.70;65.10;;;;;;5051456;28;20380;-63
2022/11/07 05:23:13;;;;;;;;;;;19.70;65.10;;;;;;5052470;28;19998;-63
2022/11/07 05:25:49;;;;;;;;;;;19.70;65.10;;;;;;5051940;28;19974;-63
2022/11/07 05:28:21;;;;;;;;;;;19.70;65.10;;;;;;5051890;28;20397;-63
2022/11/07 05:30:46;;;;;;;;;;;19.80;65.10;;;;;;5052471;28;20372;-63
2022/11/07 05:33:13;;;;;;;;;;;19.80;65.10;;;;;;5051518;28;19932;-63
2022/11/07 05:35:38;;;;;;;;;;;19.80;65.10;;;;;;5052473;28;19931;-63
2022/11/07 05:38:04;;;;;;;;;;;19.80;65.10;;;;;;5052341;28;19924;-63
2022/11/07 05:40:29;;;;;;;;;;;19.80;65.10;;;;;;5051495;28;19983;-63
2022/11/07 05:42:59;;;;;;;;;;;19.80;65.10;;;;;;5034771;28;19931;-64
2022/11/07 05:45:25;;;;;;;;;;;19.80;65.00;;;;;;5051654;28;19925;-64
2022/11/07 05:48:00;;;;;;;;;;;19.80;65.00;;;;;;5051342;28;20011;-64
2022/11/07 05:50:28;;;;;;;;;;;19.90;65.10;;;;;;5051762;28;19932;-64
2022/11/07 05:52:54;;;;;;;;;;;19.90;65.00;;;;;;5051965;28;20008;-64
2022/11/07 05:55:22;;;;;;;;;;;19.90;65.10;;;;;;5051233;28;19925;-64
2022/11/07 05:57:48;;;;;;;;;;;19.90;65.10;;;;;;5052174;28;19929;-64
2022/11/07 06:00:14;;;;;;;;;;;19.90;65.00;;;;;;5051900;28;19924;-64
2022/11/07 06:02:39;;;;;;;;;;;19.90;65.00;;;;;;5051348;28;19924;-64
2022/11/07 06:05:05;;;;;;;;;;;19.90;65.00;;;;;;5034199;28;19925;-64
2022/11/07 06:07:34;;;;;;;;;;;19.90;65.10;;;;;;5051715;28;20090;-64
2022/11/07 06:09:59;;;;;;;;;;;19.90;65.00;;;;;;5033379;28;19924;-65
2022/11/07 06:12:27;;;;;;;;;;;19.90;65.00;;;;;;5051745;28;19921;-64
2022/11/07 06:14:53;;;;;;;;;;;19.90;65.00;;;;;;5051502;28;20438;-64
2022/11/07 06:17:18;;;;;;;;;;;19.90;65.00;;;;;;5051629;28;19971;-64
2022/11/07 06:19:44;;;;;;;;;;;19.90;65.00;;;;;;5051677;28;19954;-64
2022/11/07 06:22:09;;;;;;;;;;;19.90;65.00;;;;;;5050744;28;19987;-63
2022/11/07 06:24:35;;;;;;;;;;;19.90;65.00;;;;;;5052052;28;19921;-64
2022/11/07 06:27:00;;;;;;;;;;;19.90;65.00;;;;;;5051690;28;20026;-63
2022/11/07 06:29:26;;;;;;;;;;;19.90;65.00;;;;;;5052930;28;19947;-63
2022/11/07 06:31:51;;;;;;;;;;;20.00;65.10;;;;;;5037816;28;20043;-64
2022/11/07 06:34:16;;;;;;;;;;;20.00;65.00;;;;;;5055072;28;19932;-64
2022/11/07 06:36:42;;;;;;;;;;;20.00;65.10;;;;;;5054907;28;20257;-62
2022/11/07 06:39:07;;;;;;;;;;;20.00;65.00;;;;;;5055184;28;19932;-63
2022/11/07 06:41:33;;;;;;;;;;;19.90;65.00;;;;;;5037217;28;19931;-64
2022/11/07 06:43:58;;;;;;;;;;;20.00;65.00;;;;;;5054274;28;19925;-64
2022/11/07 06:46:27;;;;;;;;;;;20.00;65.00;;;;;;5054848;28;19982;-70
2022/11/07 06:48:53;;;;;;;;;;;20.00;65.00;;;;;;5054763;28;19924;-64
2022/11/07 06:51:18;;;;;;;;;;;20.00;65.00;;;;;;5035915;28;19944;-64
2022/11/07 06:53:44;;;;;;;;;;;20.00;65.00;;;;;;5054890;28;19931;-64
2022/11/07 06:56:11;;;;;;;;;;;20.00;65.00;;;;;;5055030;28;19925;-65
2022/11/07 06:58:37;;;;;;;;;;;20.00;65.00;;;;;;5052899;28;19979;-64
2022/11/07 07:01:02;;;;;;;;;;;20.00;65.10;;;;;;5054795;28;19924;-64
2022/11/07 07:03:31;;;;;;;;;;;20.00;65.10;;;;;;5054203;28;19929;-64
2022/11/07 07:06:00;;;;;;;;;;;20.00;65.10;;;;;;5054378;28;19970;-65
2022/11/07 07:08:26;;;;;;;;;;;20.00;65.10;;;;;;5036500;28;19931;-65
2022/11/07 07:10:51;;;;;;;;;;;20.00;65.10;;;;;;5054886;28;19924;-64
2022/11/07 07:13:17;;;;;;;;;;;20.00;65.10;;;;;;5053982;28;19920;-65
2022/11/07 07:15:42;;;;;;;;;;;20.10;65.20;;;;;;5055060;28;20007;-63
2022/11/07 07:18:08;;;;;;;;;;;20.00;65.20;;;;;;5052623;28;20118;-63
2022/11/07 07:20:33;;;;;;;;;;;20.10;65.40;;;;;;5054775;28;19987;-63
2022/11/07 07:22:59;;;;;;;;;;;20.10;65.40;;;;;;5036735;28;19929;-64
2022/11/07 07:25:24;;;;;;;;;;;20.10;65.50;;;;;;5053803;28;19921;-63
2022/11/07 07:27:50;;;;;;;;;;;20.10;65.50;;;;;;5054481;28;19925;-64
2022/11/07 07:30:18;;;;;;;;;;;20.10;65.50;;;;;;5054406;28;19931;-64
2022/11/07 07:32:43;;;;;;;;;;;20.10;65.60;;;;;;5053944;28;19924;-63
2022/11/07 07:35:09;;;;;;;;;;;20.10;65.70;;;;;;5036218;28;19971;-63
2022/11/07 07:37:35;;;;;;;;;;;20.10;65.70;;;;;;5054705;28;19932;-65
2022/11/07 07:40:00;;;;;;;;;;;20.10;65.70;;;;;;5052926;28;20364;-64
2022/11/07 07:42:26;;;;;;;;;;;20.10;65.70;;;;;;5053784;28;19931;-64
2022/11/07 07:44:51;;;;;;;;;;;20.20;65.80;;;;;;5054371;28;19924;-65
2022/11/07 07:47:17;;;;;;;;;;;20.20;65.80;;;;;;5053559;28;20364;-65
2022/11/07 07:49:42;;;;;;;;;;;20.20;65.80;;;;;;5037240;28;19925;-65
2022/11/07 07:52:07;;;;;;;;;;;20.20;66.50;;;;;;5073968;28;19975;-64
2022/11/07 07:54:33;;;;;;;;;;;20.20;65.90;;;;;;5072700;28;20375;-64
2022/11/07 07:57:00;;;;;;;;;;;20.20;65.90;;;;;;5055188;28;19955;-64
2022/11/07 07:59:28;;;;;;;;;;;20.20;65.90;;;;;;5073684;28;19929;-60
2022/11/07 08:01:54;;;;;;;;;;;20.20;65.90;;;;;;5072736;28;19931;-73
2022/11/07 08:04:19;;;;;;;;;;;20.30;65.80;;;;;;5050443;28;19924;-64
2022/11/07 08:06:45;;;;;;;;;;;20.20;65.60;;;;;;5044691;28;19968;-65
2022/11/07 08:09:10;;;;;;;;;;;20.30;65.80;;;;;;5052504;28;19931;-65
2022/11/07 08:11:36;;;;;;;;;;;20.20;65.80;;;;;;5064292;28;20011;-64
2022/11/07 08:14:01;;;;;;;;;;;20.30;65.90;;;;;;5034488;28;19921;-64
2022/11/07 08:16:26;;;;;;;;;;;20.30;65.90;;;;;;5052376;28;19979;-65
2022/11/07 08:18:52;;;;;;;;;;;20.30;66.00;;;;;;5053183;28;19924;-64
2022/11/07 08:21:17;;;;;;;;;;;20.30;66.10;;;;;;5052220;28;19921;-65
2022/11/07 08:23:43;;;;;;;;;;;20.30;66.10;;;;;;5052888;28;19933;-64
2022/11/07 08:26:08;;;;;;;;;;;20.30;66.10;;;;;;5052874;28;19929;-64
2022/11/07 08:28:34;;;;;;;;;;;20.30;66.20;;;;;;5052354;28;19925;-65
2022/11/07 08:31:01;;;;;;;;;;;20.30;66.10;;;;;;5053110;28;19978;-64
2022/11/07 08:33:27;;;;;;;;;;;20.30;66.10;;;;;;5052993;28;19929;-64
2022/11/07 08:35:53;;;;;;;;;;;20.30;66.10;;;;;;5052440;28;20282;-64
2022/11/07 08:38:19;;;;;;;;;;;20.30;66.20;;;;;;5052828;28;19979;-63
2022/11/07 08:40:44;;;;;;;;;;;20.30;66.20;;;;;;5053013;28;20072;-64
2022/11/07 08:43:10;;;;;;;;;;;20.30;66.10;;;;;;5061800;28;19920;-64
2022/11/07 08:45:35;;;;;;;;;;;20.30;66.10;;;;;;5050451;28;19924;-64
2022/11/07 08:48:01;;;;;;;;;;;20.30;66.10;;;;;;5050056;28;20411;-63
2022/11/07 08:50:26;;;;;;;;;;;20.30;66.10;;;;;;5052149;28;19925;-65
2022/11/07 08:52:52;;;;;;;;;;;20.30;66.10;;;;;;5051733;28;19925;-64
2022/11/07 08:55:17;;;;;;;;;;;20.30;66.00;;;;;;5052467;28;19932;-62
2022/11/07 08:57:43;;;;;;;;;;;20.30;66.10;;;;;;5052202;28;19925;-64
2022/11/07 09:00:09;;;;;;;;;;;20.30;66.00;;;;;;5052638;28;20388;-65
2022/11/07 09:02:34;;;;;;;;;;;20.20;65.90;;;;;;5052982;28;20281;-62
2022/11/07 09:04:59;;;;;;;;;;;20.20;65.90;;;;;;5051885;28;20349;-63
2022/11/07 09:07:28;;;;;;;;;;;20.20;65.90;;;;;;5050955;28;19936;-63
2022/11/07 09:09:54;;;;;;;;;;;20.20;65.90;;;;;;5051351;28;20379;-64
2022/11/07 09:12:19;;;;;;;;;;;20.20;65.80;;;;;;5051684;28;19924;-63
2022/11/07 09:14:44;;;;;;;;;;;20.20;65.50;;;;;;5052646;28;19940;-64
2022/11/07 09:17:13;;;;;;;;;;;20.20;65.70;;;;;;5052168;28;19925;-63
2022/11/07 09:19:38;;;;;;;;;;;20.20;65.80;;;;;;5051967;28;19936;-64
2022/11/07 09:22:04;;;;;;;;;;;20.20;65.80;;;;;;5051703;28;19948;-64
2022/11/07 09:24:29;;;;;;;;;;;20.20;66.00;;;;;;5052457;28;19929;-64
2022/11/07 09:26:55;;;;;;;;;;;20.20;66.00;;;;;;5050671;28;19947;-63
2022/11/07 09:29:20;;;;;;;;;;;20.20;66.00;;;;;;5052065;28;19924;-64
2022/11/07 09:31:48;;;;;;;;;;;20.20;66.00;;;;;;5051796;28;19925;-66
2022/11/07 09:34:14;;;;;;;;;;;20.20;66.10;;;;;;5051496;28;19924;-67
2022/11/07 09:36:39;;;;;;;;;;;20.20;66.10;;;;;;5051930;28;19978;-66
2022/11/07 09:39:05;;;;;;;;;;;20.20;66.00;;;;;;5051592;28;19933;-66
2022/11/07 09:41:49;;;;;;;;;;;20.20;66.00;;;;;;5052340;28;20062;-65
2022/11/07 09:44:16;;;;;;;;;;;20.20;66.10;;;;;;5084253;28;19957;-65
2022/11/07 09:47:01;;;;;;;;;;;20.20;66.10;;;;;;5033751;28;19925;-65
2022/11/07 09:49:32;;;;;;;;;;;20.20;66.10;;;;;;5052007;28;19936;-66
2022/11/07 09:52:07;;;;;;;;;;;20.20;65.90;;;;;;5051727;28;20022;-65
2022/11/07 09:54:36;;;;;;;;;;;20.20;66.10;;;;;;5030272;28;20019;-65
2022/11/07 09:57:05;;;;;;;;;;;20.20;66.10;;;;;;5050647;28;20390;-64
2022/11/07 09:59:50;;;;;;;;;;;20.20;66.10;;;;;;5050260;28;19925;-64
2022/11/07 10:02:17;;;;;;;;;;;20.20;66.10;;;;;;5051644;28;19972;-65
2022/11/07 10:04:43;;;;;;;;;;;20.20;66.10;;;;;;5054343;28;20368;-66
2022/11/07 10:07:13;;;;;;;;;;;20.20;66.00;;;;;;5054837;28;19951;-64
2022/11/07 10:09:48;;;;;;;;;;;20.20;66.10;;;;;;5056084;28;19928;-64
2022/11/07 10:12:16;;;;;;;;;;;20.20;66.00;;;;;;5055880;28;19932;-66
2022/11/07 10:14:45;;;;;;;;;;;20.20;66.00;;;;;;5053899;28;19948;-63
2022/11/07 10:17:17;;;;;;;;;;;20.10;66.10;;;;;;5054440;28;19920;-65
2022/11/07 10:19:47;;;;;;;;;;;20.20;66.10;;;;;;5088450;28;19925;-65
2022/11/07 10:22:12;;;;;;;;;;;20.10;66.20;;;;;;5086961;28;19927;-64
2022/11/07 10:24:38;;;;;;;;;;;20.20;66.30;;;;;;5055641;28;19925;-65
2022/11/07 10:27:06;;;;;;;;;;;20.20;66.30;;;;;;5055641;28;19935;-65
2022/11/07 10:29:41;;;;;;;;;;;20.20;66.30;;;;;;5036996;28;20265;-65
2022/11/07 10:32:15;;;;;;;;;;;20.20;66.30;;;;;;5055655;28;20473;-65
2022/11/07 10:34:52;;;;;;;;;;;20.20;66.20;;;;;;5055345;28;19979;-65
2022/11/07 10:37:17;;;;;;;;;;;20.20;66.30;;;;;;5053312;28;20010;-64
2022/11/07 10:39:46;;;;;;;;;;;20.20;66.30;;;;;;5054363;28;19925;-64
2022/11/07 10:42:12;;;;;;;;;;;20.10;66.20;;;;;;5052934;28;20349;-63
2022/11/07 10:44:38;;;;;;;;;;;20.20;66.40;;;;;;5053851;28;20257;-65
2022/11/07 10:47:12;;;;;;;;;;;20.20;66.30;;;;;;5037393;28;19932;-65
2022/11/07 10:49:38;;;;;;;;;;;20.20;66.30;;;;;;5087287;28;20353;-64
2022/11/07 10:52:08;;;;;;;;;;;20.20;66.30;;;;;;5053889;28;20012;-64
2022/11/07 10:54:34;;;;;;;;;;;20.20;66.20;;;;;;5055114;28;19932;-65
2022/11/07 10:57:08;;;;;;;;;;;20.20;66.20;;;;;;5054288;28;20019;-65
2022/11/07 10:59:36;;;;;;;;;;;20.10;66.10;;;;;;5055309;28;19924;-65
2022/11/07 11:02:02;;;;;;;;;;;20.20;66.20;;;;;;5054198;28;19924;-64
2022/11/07 11:04:28;;;;;;;;;;;20.10;66.30;;;;;;5053892;28;20303;-64
2022/11/07 11:07:04;;;;;;;;;;;20.20;66.30;;;;;;5044951;28;19925;-64
2022/11/07 11:09:30;;;;;;;;;;;20.10;66.20;;;;;;5037896;28;19929;-64
2022/11/07 11:11:56;;;;;;;;;;;20.10;66.10;;;;;;5041341;28;19928;-64
2022/11/07 11:14:39;;;;;;;;;;;20.10;66.10;;;;;;5038991;28;20019;-64
2022/11/07 11:17:05;;;;;;;;;;;20.10;66.10;;;;;;5051722;28;19975;-64
2022/11/07 11:19:42;;;;;;;;;;;20.10;66.00;;;;;;5053672;28;19929;-63
2022/11/07 11:22:11;;;;;;;;;;;20.10;66.00;;;;;;5054657;28;19978;-65
2022/11/07 11:24:36;;;;;;;;;;;20.10;66.00;;;;;;5053932;28;19924;-64
2022/11/07 11:27:03;;;;;;;;;;;20.10;66.00;;;;;;5054331;28;19925;-66
2022/11/07 11:29:31;;;;;;;;;;;20.10;66.00;;;;;;5052893;28;19928;-66
2022/11/07 11:31:57;;;;;;;;;;;20.10;66.00;;;;;;5035908;28;20020;-77
2022/11/07 11:34:41;;;;;;;;;;;20.10;66.00;;;;;;5051964;28;20015;-65
2022/11/07 11:37:17;;;;;;;;;;;20.00;66.00;;;;;;5053007;28;20011;-64
2022/11/07 11:39:43;;;;;;;;;;;20.10;66.10;;;;;;5053276;28;19925;-65
2022/11/07 11:42:24;;;;;;;;;;;20.10;66.10;;;;;;5052303;28;19925;-65
2022/11/07 11:44:49;;;;;;;;;;;20.10;66.20;;;;;;5052762;28;20291;-64
2022/11/07 11:47:17;;;;;;;;;;;20.10;66.20;;;;;;5052078;28;19935;-66
2022/11/07 11:49:51;;;;;;;;;;;20.10;66.20;;;;;;5036708;28;19925;-65
2022/11/07 11:52:18;;;;;;;;;;;20.10;66.30;;;;;;5052113;28;19948;-63
2022/11/07 11:54:44;;;;;;;;;;;20.10;66.30;;;;;;5054142;28;19925;-65
2022/11/07 11:57:11;;;;;;;;;;;20.10;66.40;;;;;;5053528;28;20352;-65
2022/11/07 11:59:47;;;;;;;;;;;20.10;66.40;;;;;;5051856;28;20622;-65
2022/11/07 12:02:19;;;;;;;;;;;20.10;66.40;;;;;;5052375;28;20265;-65
2022/11/07 12:05:03;;;;;;;;;;;20.10;66.40;;;;;;5053971;28;19948;-64
2022/11/07 12:07:47;;;;;;;;;;;20.10;66.40;;;;;;5052486;28;19974;-64
2022/11/07 12:10:25;;;;;;;;;;;20.10;66.50;;;;;;5053039;28;20376;-65
2022/11/07 12:12:57;;;;;;;;;;;20.10;66.60;;;;;;5033952;28;20331;-65
2022/11/07 12:15:29;;;;;;;;;;;20.10;66.50;;;;;;5015362;28;19947;-65
2022/11/07 12:17:54;;;;;;;;;;;20.10;66.60;;;;;;5033924;28;19925;-64
2022/11/07 12:20:49;;;;;;;;;;;20.10;66.60;;;;;;5033528;28;20369;-65
2022/11/07 12:23:19;;;;;;;;;;;20.10;66.60;;;;;;5024423;28;19929;-65
2022/11/07 12:25:44;;;;;;;;;;;20.10;66.60;;;;;;5032081;28;19925;-64
2022/11/07 12:28:18;;;;;;;;;;;20.10;66.70;;;;;;5031857;28;19936;-64
2022/11/07 12:31:04;;;;;;;;;;;20.10;66.70;;;;;;5033261;28;20447;-63
2022/11/07 12:33:32;;;;;;;;;;;20.10;66.70;;;;;;5033157;28;20026;-64
2022/11/07 12:36:01;;;;;;;;;;;20.20;66.80;;;;;;5047330;28;19929;-65
2022/11/07 12:38:33;;;;;;;;;;;20.20;66.80;;;;;;5051704;28;19972;-64
2022/11/07 12:40:58;;;;;;;;;;;20.20;66.60;;;;;;5053277;28;19925;-64
2022/11/07 12:43:43;;;;;;;;;;;20.20;66.50;;;;;;5052239;28;19933;-62
2022/11/07 12:46:13;;;;;;;;;;;20.20;66.50;;;;;;5071739;28;20368;-63
2022/11/07 12:48:44;;;;;;;;;;;20.30;66.50;;;;;;5054474;28;19928;-63
2022/11/07 12:51:29;;;;;;;;;;;20.30;66.40;;;;;;5072577;28;19929;-63
2022/11/07 12:53:55;;;;;;;;;;;20.30;66.40;;;;;;5055080;28;19928;-61
2022/11/07 12:56:22;;;;;;;;;;;20.30;66.40;;;;;;5053825;28;20380;-62
2022/11/07 12:58:47;;;;;;;;;;;20.30;66.40;;;;;;5054908;28;19963;-63
2022/11/07 13:01:14;;;;;;;;;;;20.30;66.40;;;;;;5072467;28;20042;-61
2022/11/07 13:03:51;;;;;;;;;;;20.30;66.40;;;;;;5054509;28;20109;-68
2022/11/07 13:09:09;;;;;;;;;;;20.40;66.50;;;;;;5395475;22;19937;-61
2022/11/07 13:11:34;;;;;;;;;;;20.40;66.40;;;;;;4992715;28;20365;-61
2022/11/07 13:14:03;;;;;;;;;;;20.40;66.50;;;;;;4993288;28;19933;-61
2022/11/07 13:16:30;;;;;;;;;;;20.40;66.50;;;;;;4991407;28;19930;-60
2022/11/07 13:19:06;;;;;;;;;;;20.40;66.50;;;;;;4993295;28;19929;-60
2022/11/07 13:21:38;;;;;;;;;;;20.40;66.60;;;;;;4990846;28;19930;-60
2022/11/07 13:24:04;;;;;;;;;;;20.40;66.70;;;;;;4993062;28;20493;-60
2022/11/07 13:26:30;;;;;;;;;;;20.40;66.80;;;;;;4993200;28;20452;-60
2022/11/07 13:28:55;;;;;;;;;;;20.40;66.80;;;;;;4992386;28;19926;-60
2022/11/07 13:31:33;;;;;;;;;;;20.50;66.90;;;;;;4992937;28;19925;-60
2022/11/07 13:34:31;;;;;;;;;;;20.50;66.90;;;;;;4993112;28;20399;-60
2022/11/07 13:36:58;;;;;;;;;;;20.50;66.90;;;;;;4990977;28;19930;-60
2022/11/07 13:39:23;;;;;;;;;;;20.50;66.90;;;;;;4993777;28;19922;-60
2022/11/07 13:41:49;;;;;;;;;;;20.50;67.00;;;;;;4996321;28;19926;-60
2022/11/07 13:44:16;;;;;;;;;;;20.50;66.90;;;;;;4996198;28;20016;-60
2022/11/07 13:46:44;;;;;;;;;;;20.50;67.00;;;;;;4997511;28;19948;-60
2022/11/07 13:49:16;;;;;;;;;;;20.50;67.00;;;;;;4996793;28;20289;-60
2022/11/07 13:51:51;;;;;;;;;;;20.50;67.00;;;;;;4995442;28;20028;-60
2022/11/07 13:54:26;;;;;;;;;;;20.50;67.10;;;;;;4994585;28;19926;-61
2022/11/07 13:56:56;;;;;;;;;;;20.50;67.00;;;;;;4996051;28;19925;-60
2022/11/07 13:59:27;;;;;;;;;;;20.50;67.00;;;;;;4995327;28;19930;-60
2022/11/07 14:01:53;;;;;;;;;;;20.50;67.00;;;;;;4997075;28;19930;-60
2022/11/07 14:04:19;;;;;;;;;;;20.50;67.10;;;;;;4995763;28;20344;-60
2022/11/07 14:06:45;;;;;;;;;;;20.50;67.10;;;;;;4996507;28;20061;-60
2022/11/07 14:09:12;;;;;;;;;;;20.50;67.00;;;;;;4994888;28;19972;-62
2022/11/07 14:11:37;;;;;;;;;;;20.60;67.10;;;;;;4994254;28;19929;-61
2022/11/07 14:14:05;;;;;;;;;;;20.50;67.10;;;;;;5011681;28;19937;-61
2022/11/07 14:16:30;;;;;;;;;;;20.50;67.20;;;;;;4996278;28;19932;-62
2022/11/07 14:19:05;;;;;;;;;;;20.60;67.10;;;;;;4994438;28;19926;-63
2022/11/07 14:21:32;;;;;;;;;;;20.60;67.00;;;;;;4995921;28;19977;-63
2022/11/07 14:23:57;;;;;;;;;;;20.60;66.90;;;;;;4996599;28;19925;-63
2022/11/07 14:26:28;;;;;;;;;;;20.60;66.90;;;;;;4994383;28;19933;-63
2022/11/07 14:28:55;;;;;;;;;;;20.60;66.90;;;;;;4996694;28;20032;-63
2022/11/07 14:31:24;;;;;;;;;;;20.50;66.80;;;;;;4996358;28;19926;-63
2022/11/07 14:33:50;;;;;;;;;;;20.50;66.80;;;;;;4996047;28;19926;-62